createdAt,value
2023-04-16T00:01:58.179Z,4.99
2023-04-16T00:04:25.268Z,5.00
2023-04-16T00:06:51.948Z,5.01
2023-04-16T00:09:18.656Z,5.01
2023-04-16T00:11:45.274Z,5.02
2023-04-16T00:14:12.489Z,5.02
2023-04-16T00:16:39.141Z,5.03
2023-04-16T00:19:05.779Z,5.05
2023-04-16T00:21:33.679Z,5.03
2023-04-16T00:24:00.248Z,5.03
2023-04-16T00:26:26.865Z,5.03
2023-04-16T00:28:54.079Z,5.04
2023-04-16T00:31:28.367Z,5.05
2023-04-16T00:33:56.266Z,5.05
2023-04-16T00:36:23.610Z,5.08
2023-04-16T00:38:50.740Z,5.08
2023-04-16T00:41:17.372Z,5.08
2023-04-16T00:43:43.962Z,5.09
2023-04-16T00:46:10.651Z,5.09
2023-04-16T00:48:37.652Z,5.09
2023-04-16T00:51:04.963Z,5.10
2023-04-16T00:53:32.128Z,5.10
2023-04-16T00:56:00.241Z,5.11
2023-04-16T00:58:27.065Z,5.11
2023-04-16T01:00:53.696Z,5.12
2023-04-16T01:03:20.460Z,5.13
2023-04-16T01:05:51.152Z,5.13
2023-04-16T01:08:19.412Z,5.14
2023-04-16T01:10:46.298Z,5.15
2023-04-16T01:13:13.163Z,5.16
2023-04-16T01:15:39.845Z,5.17
2023-04-16T01:18:16.654Z,5.18
2023-04-16T01:20:43.663Z,5.20
2023-04-16T01:23:11.204Z,5.21
2023-04-16T01:25:38.444Z,5.21
2023-04-16T01:28:06.296Z,5.21
2023-04-16T01:30:33.309Z,5.21
2023-04-16T01:33:09.767Z,5.22
2023-04-16T01:35:37.075Z,5.22
2023-04-16T01:38:05.834Z,5.22
2023-04-16T01:40:32.455Z,5.23
2023-04-16T01:42:59.216Z,5.24
2023-04-16T01:45:25.908Z,5.26
2023-04-16T01:47:53.325Z,5.29
2023-04-16T01:50:20.538Z,5.32
2023-04-16T01:52:47.233Z,5.33
2023-04-16T01:55:13.987Z,5.33
2023-04-16T01:57:40.770Z,5.32
2023-04-16T02:00:08.160Z,5.32
2023-04-16T02:02:46.298Z,5.32
2023-04-16T02:05:14.873Z,5.32
2023-04-16T02:07:42.927Z,5.33
2023-04-16T02:10:09.884Z,5.32
2023-04-16T02:12:38.730Z,5.33
2023-04-16T02:15:06.007Z,5.33
2023-04-16T02:17:33.584Z,5.36
2023-04-16T02:20:10.234Z,5.36
2023-04-16T02:22:42.870Z,5.37
2023-04-16T02:25:10.591Z,5.38
2023-04-16T02:27:37.872Z,5.38
2023-04-16T02:30:17.122Z,5.38
2023-04-16T02:32:44.090Z,5.39
2023-04-16T02:35:10.816Z,5.39
2023-04-16T02:37:40.235Z,5.38
2023-04-16T02:40:08.539Z,5.38
2023-04-16T02:42:35.357Z,5.39
2023-04-16T02:45:02.250Z,5.40
2023-04-16T02:47:29.769Z,5.41
2023-04-16T02:49:56.582Z,5.42
2023-04-16T02:52:23.466Z,5.42
2023-04-16T02:54:50.439Z,5.41
2023-04-16T02:57:17.382Z,5.40
2023-04-16T02:59:44.182Z,5.39
2023-04-16T03:02:11.478Z,5.37
2023-04-16T03:04:38.531Z,5.36
2023-04-16T03:07:06.451Z,5.34
2023-04-16T03:09:33.695Z,5.34
2023-04-16T03:12:04.230Z,5.37
2023-04-16T03:14:31.137Z,5.38
2023-04-16T03:16:58.073Z,5.39
2023-04-16T03:19:25.332Z,5.40
2023-04-16T03:21:52.646Z,5.42
2023-04-16T03:24:19.510Z,5.43
2023-04-16T03:26:48.271Z,5.44
2023-04-16T03:29:15.489Z,5.47
2023-04-16T03:31:42.428Z,5.49
2023-04-16T03:34:10.152Z,5.50
2023-04-16T03:36:39.890Z,5.50
2023-04-16T03:39:06.865Z,5.51
2023-04-16T03:41:34.479Z,5.52
2023-04-16T03:44:02.890Z,5.54
2023-04-16T03:46:30.504Z,5.57
2023-04-16T03:48:59.295Z,5.60
2023-04-16T03:51:30.315Z,5.64
2023-04-16T03:53:58.837Z,5.66
2023-04-16T03:56:29.386Z,5.67
2023-04-16T03:58:59.318Z,5.66
2023-04-16T04:01:28.918Z,5.67
2023-04-16T04:03:58.282Z,5.69
2023-04-16T04:06:28.292Z,5.69
2023-04-16T04:08:57.297Z,5.69
2023-04-16T04:11:27.277Z,5.68
2023-04-16T04:13:57.349Z,5.68
2023-04-16T04:16:26.030Z,5.68
2023-04-16T04:18:56.302Z,5.69
2023-04-16T04:21:25.599Z,5.69
2023-04-16T04:23:56.040Z,5.69
2023-04-16T04:26:25.355Z,5.71
2023-04-16T04:28:54.413Z,5.70
2023-04-16T04:31:23.206Z,5.70
2023-04-16T04:33:54.292Z,5.69
2023-04-16T04:36:23.317Z,5.69
2023-04-16T04:38:53.258Z,5.69
2023-04-16T04:41:23.536Z,5.70
2023-04-16T04:43:52.296Z,5.70
2023-04-16T04:46:21.906Z,5.72
2023-04-16T04:56:48.830Z,5.70
2023-04-16T04:59:15.637Z,5.70
2023-04-16T05:01:42.322Z,5.70
2023-04-16T05:04:09.007Z,5.71
2023-04-16T05:06:36.037Z,5.71
2023-04-16T05:09:02.922Z,5.70
2023-04-16T05:11:29.886Z,5.69
2023-04-16T05:13:56.445Z,5.68
2023-04-16T05:16:23.077Z,5.68
2023-04-16T05:18:49.993Z,5.66
2023-04-16T05:21:16.748Z,5.67
2023-04-16T05:23:43.390Z,5.67
2023-04-16T05:26:10.413Z,5.67
2023-04-16T05:28:37.012Z,5.67
2023-04-16T05:31:03.748Z,5.68
2023-04-16T05:33:30.416Z,5.70
2023-04-16T05:35:57.346Z,5.70
2023-04-16T05:38:23.991Z,5.70
2023-04-16T05:40:50.635Z,5.71
2023-04-16T05:43:17.868Z,5.71
2023-04-16T05:45:44.440Z,5.72
2023-04-16T05:48:11.910Z,5.74
2023-04-16T05:50:38.825Z,5.77
2023-04-16T05:53:06.858Z,5.78
2023-04-16T05:55:36.299Z,5.80
2023-04-16T05:58:05.911Z,5.80
2023-04-16T06:00:32.731Z,5.82
2023-04-16T06:02:59.572Z,5.83
2023-04-16T06:05:26.821Z,5.84
2023-04-16T06:07:53.762Z,5.85
2023-04-16T06:10:20.956Z,5.85
2023-04-16T06:12:47.564Z,5.87
2023-04-16T06:15:15.983Z,5.87
2023-04-16T06:17:43.430Z,5.87
2023-04-16T06:20:11.387Z,5.88
2023-04-16T06:22:39.166Z,5.87
2023-04-16T06:25:06.099Z,5.88
2023-04-16T06:27:32.868Z,5.92
2023-04-16T06:29:59.695Z,5.95
2023-04-16T06:32:26.492Z,5.96
2023-04-16T06:34:53.292Z,5.98
2023-04-16T06:37:20.362Z,6.01
2023-04-16T06:39:47.000Z,6.06
2023-04-16T06:42:13.697Z,6.10
2023-04-16T06:44:40.291Z,6.12
2023-04-16T06:47:07.611Z,6.14
2023-04-16T06:49:35.073Z,6.15
2023-04-16T06:52:03.888Z,6.16
2023-04-16T06:54:32.432Z,6.18
2023-04-16T06:56:59.656Z,6.19
2023-04-16T06:59:26.274Z,6.17
2023-04-16T07:01:53.340Z,6.18
2023-04-16T07:04:20.678Z,6.17
2023-04-16T07:06:47.548Z,6.15
2023-04-16T07:09:14.199Z,6.16
2023-04-16T07:11:41.369Z,6.15
2023-04-16T07:14:07.932Z,6.15
2023-04-16T07:16:37.097Z,6.17
2023-04-16T07:19:03.785Z,6.20
2023-04-16T07:21:31.314Z,6.22
2023-04-16T07:23:58.154Z,6.23
2023-04-16T07:26:25.394Z,6.24
2023-04-16T07:28:51.975Z,6.24
2023-04-16T07:31:18.594Z,6.27
2023-04-16T07:33:45.387Z,6.31
2023-04-16T07:36:11.994Z,6.35
2023-04-16T07:38:39.559Z,6.40
2023-04-16T07:41:06.192Z,6.44
2023-04-16T07:43:32.747Z,6.47
2023-04-16T07:45:59.996Z,6.50
2023-04-16T07:48:26.784Z,6.50
2023-04-16T07:50:53.440Z,6.52
2023-04-16T07:53:20.620Z,6.54
2023-04-16T07:55:47.263Z,6.56
2023-04-16T07:58:13.870Z,6.59
2023-04-16T08:00:40.991Z,6.61
2023-04-16T08:03:07.791Z,6.62
2023-04-16T08:05:34.721Z,6.63
2023-04-16T08:08:02.129Z,6.66
2023-04-16T08:10:28.906Z,6.69
2023-04-16T08:12:55.921Z,6.73
2023-04-16T08:15:22.759Z,6.73
2023-04-16T08:17:49.362Z,6.72
2023-04-16T08:20:19.095Z,6.74
2023-04-16T08:22:46.292Z,6.76
2023-04-16T08:25:13.403Z,6.77
2023-04-16T08:27:40.254Z,6.77
2023-04-16T08:30:07.645Z,6.73
2023-04-16T08:32:34.419Z,6.71
2023-04-16T08:35:01.384Z,6.70
2023-04-16T08:37:28.393Z,6.68
2023-04-16T08:39:55.168Z,6.70
2023-04-16T08:42:27.540Z,6.74
2023-04-16T08:44:59.581Z,6.77
2023-04-16T08:47:26.574Z,6.80
2023-04-16T08:49:53.210Z,6.82
2023-04-16T08:52:20.439Z,6.82
2023-04-16T08:54:59.431Z,6.84
2023-04-16T08:57:29.345Z,6.83
2023-04-16T08:59:56.443Z,6.82
2023-04-16T09:02:23.390Z,6.84
2023-04-16T09:04:50.697Z,6.86
2023-04-16T09:07:17.360Z,6.88
2023-04-16T09:09:44.684Z,6.91
2023-04-16T09:12:11.339Z,6.91
2023-04-16T09:14:41.359Z,6.91
2023-04-16T09:17:08.430Z,6.94
2023-04-16T09:19:35.341Z,6.97
2023-04-16T09:22:01.962Z,7.01
2023-04-16T09:24:28.952Z,7.00
2023-04-16T09:26:55.914Z,6.99
2023-04-16T09:29:36.940Z,6.98
2023-04-16T09:32:05.367Z,6.97
2023-04-16T09:34:52.880Z,6.96
2023-04-16T09:37:19.673Z,6.96
2023-04-16T09:39:55.924Z,6.96
2023-04-16T09:42:24.133Z,6.96
2023-04-16T09:44:51.789Z,6.97
2023-04-16T09:47:18.550Z,7.02
2023-04-16T09:49:46.522Z,7.09
2023-04-16T09:52:20.642Z,7.12
2023-04-16T09:54:48.060Z,7.11
2023-04-16T09:57:20.350Z,7.12
2023-04-16T09:59:48.143Z,7.13
2023-04-16T10:02:16.605Z,7.14
2023-04-16T10:04:51.285Z,7.13
2023-04-16T10:07:18.530Z,7.09
2023-04-16T10:09:49.031Z,7.12
2023-04-16T10:12:16.983Z,7.15
2023-04-16T10:14:44.381Z,7.16
2023-04-16T10:17:11.006Z,7.16
2023-04-16T10:19:37.851Z,7.18
2023-04-16T10:22:04.556Z,7.22
2023-04-16T10:24:32.335Z,7.25
2023-04-16T10:26:59.533Z,7.31
2023-04-16T10:29:27.573Z,7.37
2023-04-16T10:31:54.762Z,7.46
2023-04-16T10:34:21.451Z,7.50
2023-04-16T10:36:50.153Z,7.53
2023-04-16T10:39:22.397Z,7.53
2023-04-16T10:41:50.046Z,7.50
2023-04-16T10:44:18.259Z,7.45
2023-04-16T10:46:50.951Z,7.38
2023-04-16T10:49:24.443Z,7.33
2023-04-16T10:51:57.766Z,7.31
2023-04-16T10:54:31.297Z,7.29
2023-04-16T10:57:09.511Z,7.25
2023-04-16T10:59:37.878Z,7.18
2023-04-16T11:02:09.149Z,7.11
2023-04-16T11:04:37.368Z,7.09
2023-04-16T11:07:16.590Z,7.10
2023-04-16T11:09:49.998Z,7.13
2023-04-16T11:12:18.549Z,7.16
2023-04-16T11:14:58.611Z,7.17
2023-04-16T11:17:28.678Z,7.20
2023-04-16T11:19:55.317Z,7.21
2023-04-16T11:22:21.884Z,7.21
2023-04-16T11:24:53.556Z,7.22
2023-04-16T11:27:20.608Z,7.23
2023-04-16T11:29:57.417Z,7.23
2023-04-16T11:32:24.078Z,7.20
2023-04-16T11:34:50.698Z,7.17
2023-04-16T11:37:20.821Z,7.15
2023-04-16T11:39:49.530Z,7.14
2023-04-16T11:42:22.496Z,7.14
2023-04-16T11:44:56.152Z,7.15
2023-04-16T11:47:23.546Z,7.18
2023-04-16T11:49:50.827Z,7.24
2023-04-16T11:52:31.709Z,7.28
2023-04-16T11:54:58.799Z,7.29
2023-04-16T11:57:26.076Z,7.27
2023-04-16T12:00:01.635Z,7.25
2023-04-16T12:02:40.842Z,7.23
2023-04-16T12:05:29.698Z,7.22
2023-04-16T12:07:57.449Z,7.22
2023-04-16T12:10:24.244Z,7.22
2023-04-16T12:12:51.650Z,7.22
2023-04-16T12:15:18.330Z,7.24
2023-04-16T12:17:45.541Z,7.26
2023-04-16T12:20:13.539Z,7.29
2023-04-16T12:22:47.711Z,7.32
2023-04-16T12:25:16.121Z,7.34
2023-04-16T12:27:44.844Z,7.37
2023-04-16T12:30:12.112Z,7.35
2023-04-16T12:32:40.786Z,7.33
2023-04-16T12:35:08.674Z,7.35
2023-04-16T12:37:35.380Z,7.36
2023-04-16T12:40:04.118Z,7.35
2023-04-16T12:42:35.349Z,7.37
2023-04-16T12:45:03.607Z,7.36
2023-04-16T12:47:31.537Z,7.35
2023-04-16T12:49:58.543Z,7.32
2023-04-16T12:52:25.343Z,7.33
2023-04-16T12:54:52.586Z,7.35
2023-04-16T12:57:19.420Z,7.35
2023-04-16T12:59:46.489Z,7.36
2023-04-16T13:02:13.471Z,7.36
2023-04-16T13:04:40.491Z,7.36
2023-04-16T13:07:10.982Z,7.36
2023-04-16T13:09:40.004Z,7.36
2023-04-16T13:12:06.976Z,7.36
2023-04-16T13:14:34.772Z,7.34
2023-04-16T13:17:01.510Z,7.33
2023-04-16T13:19:28.353Z,7.35
2023-04-16T13:21:54.960Z,7.39
2023-04-16T13:24:23.048Z,7.45
2023-04-16T13:26:51.507Z,7.51
2023-04-16T13:29:22.152Z,7.55
2023-04-16T13:31:49.078Z,7.55
2023-04-16T13:34:15.763Z,7.54
2023-04-16T13:36:42.437Z,7.53
2023-04-16T13:39:12.048Z,7.51
2023-04-16T13:41:39.563Z,7.49
2023-04-16T13:44:06.205Z,7.46
2023-04-16T13:46:34.395Z,7.44
2023-04-16T13:49:01.043Z,7.43
2023-04-16T13:51:27.797Z,7.45
2023-04-16T13:53:57.367Z,7.47
2023-04-16T13:56:24.677Z,7.47
2023-04-16T13:58:51.684Z,7.45
2023-04-16T14:01:18.380Z,7.41
2023-04-16T14:03:45.369Z,7.40
2023-04-16T14:06:13.137Z,7.39
2023-04-16T14:08:40.120Z,7.36
2023-04-16T14:11:08.567Z,7.31
2023-04-16T14:13:36.071Z,7.29
2023-04-16T14:16:02.704Z,7.25
2023-04-16T14:18:29.792Z,7.23
2023-04-16T14:20:56.965Z,7.20
2023-04-16T14:23:23.584Z,7.19
2023-04-16T14:25:50.179Z,7.18
2023-04-16T14:28:17.058Z,7.18
2023-04-16T14:30:43.795Z,7.20
2023-04-16T14:33:10.818Z,7.22
2023-04-16T14:35:37.637Z,7.22
2023-04-16T14:38:04.464Z,7.19
2023-04-16T14:40:31.115Z,7.18
2023-04-16T14:42:57.749Z,7.18
2023-04-16T14:45:28.429Z,7.19
2023-04-16T14:47:55.429Z,7.19
2023-04-16T14:50:22.266Z,7.20
2023-04-16T14:52:51.161Z,7.20
2023-04-16T14:55:17.912Z,7.21
2023-04-16T14:57:44.518Z,7.21
2023-04-16T15:00:12.854Z,7.20
2023-04-16T15:02:39.992Z,7.21
2023-04-16T15:05:09.212Z,7.21
2023-04-16T15:07:36.402Z,7.19
2023-04-16T15:10:03.261Z,7.15
2023-04-16T15:12:30.103Z,7.11
2023-04-16T15:14:57.060Z,7.09
2023-04-16T15:17:23.880Z,7.07
2023-04-16T15:19:51.615Z,7.05
2023-04-16T15:22:18.213Z,7.03
2023-04-16T15:24:44.829Z,7.00
2023-04-16T15:27:13.292Z,6.97
2023-04-16T15:29:40.005Z,6.94
2023-04-16T15:32:06.804Z,6.91
2023-04-16T15:34:34.677Z,6.88
2023-04-16T15:37:01.450Z,6.86
2023-04-16T15:39:28.415Z,6.82
2023-04-16T15:42:01.214Z,6.80
2023-04-16T15:44:30.644Z,6.76
2023-04-16T15:46:57.610Z,6.73
2023-04-16T15:49:24.463Z,6.72
2023-04-16T15:51:51.905Z,6.71
2023-04-16T15:54:18.828Z,6.70
2023-04-16T15:56:46.200Z,6.69
2023-04-16T15:59:13.123Z,6.70
2023-04-16T16:01:41.429Z,6.72
2023-04-16T16:04:08.323Z,6.72
2023-04-16T16:06:35.473Z,6.73
2023-04-16T16:09:03.165Z,6.74
2023-04-16T16:11:29.794Z,6.75
2023-04-16T16:13:56.697Z,6.74
2023-04-16T16:16:23.412Z,6.74
2023-04-16T16:18:50.030Z,6.74
2023-04-16T16:21:16.970Z,6.75
2023-04-16T16:23:43.660Z,6.74
2023-04-16T16:26:10.323Z,6.73
2023-04-16T16:28:37.659Z,6.74
2023-04-16T16:31:05.478Z,6.75
2023-04-16T16:33:32.466Z,6.75
2023-04-16T16:35:59.206Z,6.74
2023-04-16T16:38:26.531Z,6.72
2023-04-16T16:40:53.121Z,6.68
2023-04-16T16:43:20.179Z,6.65
2023-04-16T16:45:46.873Z,6.63
2023-04-16T16:48:13.565Z,6.61
2023-04-16T16:50:40.344Z,6.61
2023-04-16T16:53:07.263Z,6.60
2023-04-16T16:55:34.969Z,6.59
2023-04-16T16:58:02.456Z,6.58
2023-04-16T17:00:29.331Z,6.58
2023-04-16T17:02:56.246Z,6.57
2023-04-16T17:05:22.997Z,6.56
2023-04-16T17:07:50.143Z,6.55
2023-04-16T17:10:20.360Z,6.55
2023-04-16T17:12:47.797Z,6.55
2023-04-16T17:15:14.963Z,6.55
2023-04-16T17:17:41.975Z,6.54
2023-04-16T17:20:10.302Z,6.54
2023-04-16T17:22:38.459Z,6.51
2023-04-16T17:25:07.005Z,6.50
2023-04-16T17:27:33.907Z,6.50
2023-04-16T17:30:01.472Z,6.50
2023-04-16T17:32:29.256Z,6.50
2023-04-16T17:34:56.110Z,6.48
2023-04-16T17:37:22.806Z,6.48
2023-04-16T17:39:49.619Z,6.48
2023-04-16T17:42:16.958Z,6.47
2023-04-16T17:44:43.866Z,6.46
2023-04-16T17:47:10.704Z,6.46
2023-04-16T17:49:37.406Z,6.46
2023-04-16T17:52:04.213Z,6.45
2023-04-16T17:54:30.940Z,6.46
2023-04-16T17:56:58.285Z,6.45
2023-04-16T17:59:25.313Z,6.45
2023-04-16T18:01:52.224Z,6.44
2023-04-16T18:04:19.413Z,6.45
2023-04-16T18:06:46.528Z,6.45
2023-04-16T18:09:14.951Z,6.45
2023-04-16T18:11:41.615Z,6.45
2023-04-16T18:14:09.518Z,6.43
2023-04-16T18:16:36.718Z,6.41
2023-04-16T18:19:03.369Z,6.42
2023-04-16T18:21:30.998Z,6.43
2023-04-16T18:23:58.150Z,6.44
2023-04-16T18:26:25.373Z,6.46
2023-04-16T18:28:52.048Z,6.46
2023-04-16T18:31:21.019Z,6.47
2023-04-16T18:33:56.809Z,6.47
2023-04-16T18:36:26.087Z,6.48
2023-04-16T18:39:15.152Z,6.48
2023-04-16T18:41:41.070Z,6.49
2023-04-16T18:44:10.098Z,6.48
2023-04-16T18:46:36.718Z,6.48
2023-04-16T18:49:03.590Z,6.49
2023-04-16T18:51:30.460Z,6.50
2023-04-16T18:53:57.405Z,6.51
2023-04-16T18:56:24.110Z,6.52
2023-04-16T18:58:50.793Z,6.53
2023-04-16T19:01:17.716Z,6.53
2023-04-16T19:03:44.922Z,6.54
2023-04-16T19:06:11.565Z,6.54
2023-04-16T19:08:38.632Z,6.54
2023-04-16T19:11:05.403Z,6.54
2023-04-16T19:13:32.556Z,6.54
2023-04-16T19:16:00.405Z,6.53
2023-04-16T19:18:27.492Z,6.54
2023-04-16T19:21:00.628Z,6.53
2023-04-16T19:23:27.580Z,6.53
2023-04-16T19:25:58.000Z,6.53
2023-04-16T19:28:24.720Z,6.53
2023-04-16T19:30:52.042Z,6.54
2023-04-16T19:33:18.748Z,6.55
2023-04-16T19:35:46.052Z,6.55
2023-04-16T19:38:13.794Z,6.55
2023-04-16T19:40:44.806Z,6.55
2023-04-16T19:43:11.917Z,6.56
2023-04-16T19:45:52.726Z,6.56
2023-04-16T19:48:20.867Z,6.56
2023-04-16T19:50:47.663Z,6.56
2023-04-16T19:53:16.473Z,6.56
2023-04-16T19:55:43.162Z,6.57
2023-04-16T19:58:10.053Z,6.56
2023-04-16T20:00:37.926Z,6.55
2023-04-16T20:03:05.415Z,6.55
2023-04-16T20:05:32.490Z,6.55
2023-04-16T20:07:59.082Z,6.54
2023-04-16T20:10:26.548Z,6.55
2023-04-16T20:12:53.202Z,6.55
2023-04-16T20:15:21.083Z,6.56
2023-04-16T20:17:47.833Z,6.56
2023-04-16T20:20:15.965Z,6.56
2023-04-16T20:22:43.068Z,6.56
2023-04-16T20:25:09.733Z,6.56
2023-04-16T20:27:36.643Z,6.55
2023-04-16T20:30:05.454Z,6.55
2023-04-16T20:32:32.574Z,6.55
2023-04-16T20:34:59.503Z,6.55
2023-04-16T20:37:28.379Z,6.53
2023-04-16T20:39:55.636Z,6.52
2023-04-16T20:42:22.868Z,6.53
2023-04-16T20:44:55.569Z,6.53
2023-04-16T20:47:22.479Z,6.54
2023-04-16T20:49:49.104Z,6.54
2023-04-16T20:52:16.215Z,6.54
2023-04-16T20:54:43.718Z,6.55
2023-04-16T20:57:10.504Z,6.55
2023-04-16T20:59:37.397Z,6.55
2023-04-16T21:02:04.331Z,6.59
2023-04-16T21:04:32.493Z,6.62
2023-04-16T21:07:02.596Z,6.66
2023-04-16T21:09:30.410Z,6.71
2023-04-16T21:11:57.138Z,6.75
2023-04-16T21:14:23.759Z,6.80
2023-04-16T21:16:50.517Z,6.85
2023-04-16T21:19:17.077Z,6.89
2023-04-16T21:21:43.878Z,6.92
2023-04-16T21:24:10.501Z,6.95
2023-04-16T21:26:37.141Z,6.98
2023-04-16T21:29:03.689Z,7.00
2023-04-16T21:31:30.508Z,7.02
2023-04-16T21:33:57.176Z,7.02
2023-04-16T21:36:25.998Z,7.03
2023-04-16T21:38:52.653Z,7.04
2023-04-16T21:41:19.257Z,7.06
2023-04-16T21:43:48.519Z,7.08
2023-04-16T21:46:16.426Z,7.08
2023-04-16T21:48:43.034Z,7.07
2023-04-16T21:51:10.151Z,7.08
2023-04-16T21:53:38.253Z,7.10
2023-04-16T21:56:05.781Z,7.13
2023-04-16T21:58:32.473Z,7.16
2023-04-16T22:00:59.094Z,7.18
2023-04-16T22:03:27.447Z,7.17
2023-04-16T22:06:00.071Z,7.16
2023-04-16T22:08:30.620Z,7.19
2023-04-16T22:11:01.589Z,7.21
2023-04-16T22:13:31.601Z,7.22
2023-04-16T22:16:00.790Z,7.21
2023-04-16T22:18:28.469Z,7.22
2023-04-16T22:20:55.597Z,7.22
2023-04-16T22:23:25.127Z,7.24
2023-04-16T22:25:53.384Z,7.30
2023-04-16T22:28:20.543Z,7.35
2023-04-16T22:30:47.314Z,7.38
2023-04-16T22:33:14.239Z,7.41
2023-04-16T22:35:40.927Z,7.43
2023-04-16T22:38:07.735Z,7.44
2023-04-16T22:40:34.431Z,7.48
2023-04-16T22:43:01.230Z,7.48
2023-04-16T22:45:27.972Z,7.47
2023-04-16T22:47:54.746Z,7.45
2023-04-16T22:50:22.624Z,7.45
2023-04-16T22:52:49.194Z,7.46
2023-04-16T22:55:16.238Z,7.46
2023-04-16T22:57:43.344Z,7.46
2023-04-16T23:00:15.116Z,7.44
2023-04-16T23:02:42.443Z,7.42
2023-04-16T23:05:09.170Z,7.43
2023-04-16T23:07:35.883Z,7.44
2023-04-16T23:10:02.638Z,7.44
2023-04-16T23:12:30.053Z,7.47
2023-04-16T23:14:57.695Z,7.48
2023-04-16T23:17:24.655Z,7.47
2023-04-16T23:19:51.288Z,7.43
2023-04-16T23:22:17.954Z,7.40
2023-04-16T23:24:45.254Z,7.37
2023-04-16T23:27:11.949Z,7.37
2023-04-16T23:29:38.576Z,7.37
2023-04-16T23:32:05.424Z,7.37
2023-04-16T23:34:32.287Z,7.35
2023-04-16T23:36:58.851Z,7.32
2023-04-16T23:39:25.616Z,7.29
2023-04-16T23:41:52.250Z,7.25
2023-04-16T23:44:18.892Z,7.24
2023-04-16T23:46:45.844Z,7.24
2023-04-16T23:49:12.821Z,7.23
2023-04-16T23:51:40.310Z,7.22
2023-04-16T23:54:07.114Z,7.20
2023-04-16T23:56:34.027Z,7.16
2023-04-16T23:59:00.692Z,7.13
